Terminal Aerodrome Forecast
Issued by NWS Upton, NY

Home | Current Version | Previous Version | Text Only | Print | Product List | Glossary On
Versions: 1 2 3 4 5 6 7 8 9 10 11 12 13 14 15 16 17 18 19 20 21 22 23 24 25 26 27
000
FTUS41 KOKX 212300
TAFEWR
TAF
KEWR 212332Z 2200/2306 03008KT P6SM VCTS SCT025CB BKN045
      TEMPO 2200/2202 6SM -SHRA BR BKN025
     FM220200 02008KT P6SM SCT035 BKN080
     FM220700 02011KT 6SM -SHRA BKN015
     FM221300 01015G22KT 6SM BR VCSH BKN015
     FM230000 35018G27KT 4SM -RA BR BKN010=

USA.gov is the U.S. government's official web portal to all federal, state and local government web resources and services.